Time;durP1;ratioP1;P1;durP2;ratioP2;P2;SDS_P1;SDS_P2;PMS_P1;PMS_P2;Temp;Humidity;BMP_temperature;BMP_pressure;BME280_temperature;BME280_humidity;BME280_pressure;Samples;Min_cycle;Max_cycle;Signal;HPM_P1;HPM_P2
2022/01/10 00:00:54;;;;;;;24.23;11.85;;;;;;;3.37;100.00;96150.22;4892173;29;20031;-80
2022/01/10 00:03:29;;;;;;;23.70;10.65;;;;;;;3.36;100.00;96142.34;4901030;29;20435;-80
2022/01/10 00:05:55;;;;;;;21.13;11.40;;;;;;;3.35;100.00;96143.31;4895027;29;20504;-80
2022/01/10 00:08:20;;;;;;;23.02;10.98;;;;;;;3.33;100.00;96151.31;4896538;29;20047;-80
2022/01/10 00:10:46;;;;;;;28.00;13.23;;;;;;;3.39;100.00;96150.13;4910710;29;20043;-80
2022/01/10 00:13:12;;;;;;;25.73;11.23;;;;;;;3.31;100.00;96147.06;4907463;29;20076;-81
2022/01/10 00:15:38;;;;;;;25.73;11.63;;;;;;;3.24;100.00;96135.97;4907508;29;20514;-80
2022/01/10 00:18:04;;;;;;;22.10;11.70;;;;;;;3.26;100.00;96144.69;4894068;29;20044;-80
2022/01/10 00:20:45;;;;;;;22.60;11.65;;;;;;;3.35;100.00;96154.75;4891750;29;20416;-80
2022/01/10 00:23:11;;;;;;;29.60;11.63;;;;;;;3.37;100.00;96152.84;4891903;29;20051;-79
2022/01/10 00:25:37;;;;;;;25.20;11.70;;;;;;;3.22;100.00;96137.88;4899629;29;20040;-81
2022/01/10 00:28:02;;;;;;;24.25;11.30;;;;;;;3.14;100.00;96135.63;4911578;29;20047;-79
2022/01/10 00:30:28;;;;;;;23.80;10.98;;;;;;;3.31;100.00;96144.41;4883665;29;20040;-80
2022/01/10 00:32:54;;;;;;;26.70;11.80;;;;;;;3.31;100.00;96139.13;4907287;29;20043;-80
2022/01/10 00:35:19;;;;;;;20.40;10.07;;;;;;;3.27;100.00;96134.03;4891360;29;20604;-79
2022/01/10 00:37:46;;;;;;;21.23;10.35;;;;;;;3.25;100.00;96143.84;4897846;29;20502;-79
2022/01/10 00:40:14;;;;;;;20.63;9.55;;;;;;;3.23;100.00;96150.97;4930694;29;20110;-79
2022/01/10 00:42:40;;;;;;;21.90;10.50;;;;;;;3.16;100.00;96148.78;4897133;29;20036;-79
2022/01/10 00:45:17;;;;;;;22.02;9.98;;;;;;;3.12;100.00;96141.94;4886661;29;20051;-79
2022/01/10 00:47:45;;;;;;;21.20;9.80;;;;;;;3.18;100.00;96146.88;4896007;29;20039;-79
2022/01/10 00:50:11;;;;;;;22.15;10.60;;;;;;;3.13;100.00;96131.31;4908089;29;20039;-79
2022/01/10 00:52:37;;;;;;;23.58;9.23;;;;;;;3.14;100.00;96129.50;4883775;29;20398;-79
2022/01/10 00:55:03;;;;;;;24.65;10.07;;;;;;;3.17;100.00;96129.31;4899787;29;20051;-79
2022/01/10 00:57:31;;;;;;;21.48;9.80;;;;;;;3.09;100.00;96136.84;4890582;29;20048;-79
2022/01/10 01:00:00;;;;;;;20.58;9.30;;;;;;;3.09;100.00;96128.91;4899199;29;20574;-79
2022/01/10 01:02:31;;;;;;;20.40;9.23;;;;;;;3.16;100.00;96149.63;4919433;29;20027;-81
2022/01/10 01:05:01;;;;;;;25.17;9.60;;;;;;;3.10;100.00;96155.25;4918042;29;20500;-80
2022/01/10 01:07:26;;;;;;;37.97;15.07;;;;;;;3.08;100.00;96157.09;4909251;29;20036;-80
2022/01/10 01:10:03;;;;;;;32.78;13.13;;;;;;;3.06;100.00;96144.94;4917286;29;20066;-80
2022/01/10 01:15:29;;;;;;;21.20;9.27;;;;;;;3.10;100.00;96149.97;4902256;29;20032;-79
2022/01/10 01:18:10;;;;;;;24.55;9.75;;;;;;;3.13;100.00;96149.81;4883441;29;20428;-80
2022/01/10 01:25:55;;;;;;;22.50;9.93;;;;;;;3.21;100.00;96158.13;4929583;29;20111;-81
2022/01/10 01:28:21;;;;;;;22.40;11.13;;;;;;;3.21;100.00;96146.72;4901084;29;20032;-79
2022/01/10 01:30:46;;;;;;;22.40;10.13;;;;;;;3.26;100.00;96139.41;4896079;29;20092;-79
2022/01/10 01:33:16;;;;;;;21.27;10.15;;;;;;;3.32;100.00;96143.50;4890201;29;20069;-79
2022/01/10 01:35:41;;;;;;;22.10;9.68;;;;;;;3.24;100.00;96120.13;4890671;29;20116;-79
2022/01/10 01:38:08;;;;;;;22.60;10.00;;;;;;;3.38;100.00;96138.72;4897389;29;20551;-79
2022/01/10 01:40:39;;;;;;;19.50;10.05;;;;;;;3.39;100.00;96137.75;4918482;29;20032;-80
2022/01/10 01:43:04;;;;;;;20.30;9.32;;;;;;;3.32;100.00;96128.50;4909116;29;20076;-80
2022/01/10 01:45:44;;;;;;;20.90;9.55;;;;;;;3.41;100.00;96133.25;4896468;29;20039;-79
2022/01/10 01:48:10;;;;;;;18.77;8.95;;;;;;;3.37;100.00;96121.16;4917165;29;20467;-80
2022/01/10 01:50:36;;;;;;;19.67;8.52;;;;;;;3.44;100.00;96119.88;4912359;29;20502;-79
2022/01/10 01:53:03;;;;;;;21.73;8.57;;;;;;;3.48;100.00;96117.88;4894692;29;20047;-79
2022/01/10 01:55:29;;;;;;;18.75;8.52;;;;;;;3.43;100.00;96110.22;4900244;29;20047;-79
2022/01/10 01:57:55;;;;;;;15.73;8.10;;;;;;;3.45;100.00;96129.47;4911985;29;20051;-80
2022/01/10 02:00:22;;;;;;;22.52;8.90;;;;;;;3.41;100.00;96122.69;4894128;29;20416;-80
2022/01/10 02:02:52;;;;;;;19.08;8.32;;;;;;;3.38;100.00;96122.88;4915109;29;20119;-80
2022/01/10 02:05:18;;;;;;;17.77;8.38;;;;;;;3.41;100.00;96127.13;4899418;29;20401;-80
2022/01/10 02:07:44;;;;;;;19.23;8.23;;;;;;;3.47;100.00;96132.06;4915587;29;20507;-79
2022/01/10 02:10:10;;;;;;;18.52;8.75;;;;;;;3.39;100.00;96127.19;4916216;29;20428;-80
2022/01/10 02:12:36;;;;;;;17.58;8.15;;;;;;;3.30;100.00;96119.78;4911667;29;20044;-80
2022/01/10 02:15:02;;;;;;;14.40;7.65;;;;;;;3.32;100.00;96136.41;4891108;29;20087;-80
2022/01/10 02:17:35;;;;;;;16.90;8.30;;;;;;;3.27;100.00;96120.81;4909876;29;20099;-80
2022/01/10 02:20:05;;;;;;;19.88;8.75;;;;;;;3.26;100.00;96136.78;4897317;29;20044;-80
2022/01/10 02:22:30;;;;;;;16.20;8.57;;;;;;;3.21;100.00;96123.81;4895069;29;20134;-80
2022/01/10 02:24:56;;;;;;;18.20;8.98;;;;;;;3.16;100.00;96127.63;4906876;29;20473;-80
2022/01/10 02:27:23;;;;;;;19.45;8.80;;;;;;;3.14;100.00;96134.78;4903123;29;20452;-80
2022/01/10 02:29:55;;;;;;;18.52;9.10;;;;;;;3.14;100.00;96137.41;4894955;29;20442;-80
2022/01/10 02:32:21;;;;;;;17.10;8.68;;;;;;;3.10;100.00;96135.91;4896143;29;20040;-80
2022/01/10 02:34:47;;;;;;;22.75;9.48;;;;;;;3.09;100.00;96135.06;4905884;29;20079;-80
2022/01/10 02:37:34;;;;;;;18.27;9.15;;;;;;;3.10;100.00;96143.84;4903914;29;20128;-80
2022/01/10 02:40:03;;;;;;;25.55;10.00;;;;;;;3.13;100.00;96149.81;4910771;29;20043;-80
2022/01/10 02:42:29;;;;;;;22.90;10.43;;;;;;;3.09;100.00;96136.84;4892863;29;20035;-80
2022/01/10 02:44:55;;;;;;;27.20;9.90;;;;;;;3.07;100.00;96136.94;4908062;29;20047;-80
2022/01/10 02:47:20;;;;;;;23.88;10.90;;;;;;;3.05;100.00;96135.28;4886931;29;20529;-79
2022/01/10 02:49:46;;;;;;;23.48;10.20;;;;;;;2.97;100.00;96137.50;4904957;29;20036;-80
2022/01/10 02:52:11;;;;;;;23.20;10.35;;;;;;;2.93;100.00;96146.53;4903018;29;20050;-80
2022/01/10 02:54:37;;;;;;;29.40;11.77;;;;;;;2.84;100.00;96144.38;4905683;29;20044;-79
2022/01/10 02:57:03;;;;;;;26.40;11.32;;;;;;;2.93;100.00;96130.69;4890079;29;20100;-81
2022/01/10 02:59:28;;;;;;;37.45;13.75;;;;;;;2.90;100.00;96130.84;4903444;29;20041;-80
2022/01/10 03:01:54;;;;;;;30.85;13.82;;;;;;;2.85;100.00;96133.75;4905249;29;20493;-79
2022/01/10 03:04:20;;;;;;;30.85;12.07;;;;;;;2.90;100.00;96136.13;4908377;29;20071;-79
2022/01/10 03:06:48;;;;;;;24.55;9.95;;;;;;;3.00;100.00;96150.53;4906804;29;20055;-79
2022/01/10 03:09:14;;;;;;;26.92;10.88;;;;;;;2.82;100.00;96151.53;4910172;29;20116;-79
2022/01/10 03:11:42;;;;;;;22.27;10.30;;;;;;;2.86;100.00;96153.91;4900064;29;20136;-81
2022/01/10 03:14:08;;;;;;;25.55;11.05;;;;;;;2.94;100.00;96158.81;4890905;29;20040;-79
2022/01/10 03:16:34;;;;;;;27.00;10.68;;;;;;;2.86;100.00;96153.09;4888922;29;20072;-80
2022/01/10 03:18:59;;;;;;;23.45;10.18;;;;;;;2.78;100.00;96150.84;4904914;29;20492;-80
2022/01/10 03:21:25;;;;;;;28.38;11.77;;;;;;;2.70;100.00;96147.78;4907773;29;20116;-80
2022/01/10 03:23:51;;;;;;;27.52;11.95;;;;;;;2.70;100.00;96142.50;4908085;29;20044;-81
2022/01/10 03:26:18;;;;;;;31.35;12.70;;;;;;;2.81;100.00;96141.91;4905225;29;20041;-80
2022/01/10 03:28:44;;;;;;;36.25;15.05;;;;;;;2.93;100.00;96146.53;4910308;29;20117;-80
2022/01/10 03:31:09;;;;;;;32.65;13.43;;;;;;;3.06;100.00;96158.13;4907778;29;20481;-80
2022/01/10 03:33:35;;;;;;;33.83;14.85;;;;;;;2.97;100.00;96140.16;4907676;29;20415;-79
2022/01/10 03:36:01;;;;;;;35.10;13.75;;;;;;;3.03;100.00;96147.72;4884702;29;20049;-80
2022/01/10 03:38:26;;;;;;;34.95;14.65;;;;;;;3.05;100.00;96151.13;4900918;29;20035;-80
2022/01/10 03:40:52;;;;;;;33.20;13.10;;;;;;;2.99;100.00;96151.47;4907473;29;20040;-79
2022/01/10 03:43:18;;;;;;;31.10;12.98;;;;;;;3.04;100.00;96155.59;4907689;29;20032;-80
2022/01/10 03:45:43;;;;;;;33.63;13.75;;;;;;;3.05;100.00;96156.41;4907299;29;20040;-80
2022/01/10 03:48:09;;;;;;;32.53;13.68;;;;;;;3.06;100.00;96152.84;4904758;29;20032;-80
2022/01/10 03:50:35;;;;;;;30.80;13.07;;;;;;;3.07;100.00;96162.50;4894446;29;20044;-80
2022/01/10 03:53:01;;;;;;;30.58;13.93;;;;;;;3.05;100.00;96153.78;4894422;29;20429;-80
2022/01/10 03:55:26;;;;;;;34.10;13.95;;;;;;;2.97;100.00;96156.00;4907325;29;20493;-79
2022/01/10 03:57:52;;;;;;;35.17;12.20;;;;;;;2.90;100.00;96146.69;4888850;29;20040;-80
2022/01/10 04:00:18;;;;;;;27.60;10.77;;;;;;;2.90;100.00;96159.91;4905110;29;20033;-80
2022/01/10 04:02:51;;;;;;;27.45;12.20;;;;;;;3.02;100.00;96170.66;4906636;29;20041;-80
2022/01/10 04:05:17;;;;;;;39.90;15.27;;;;;;;3.03;100.00;96166.22;4912487;29;20096;-81
2022/01/10 04:07:42;;;;;;;32.78;13.77;;;;;;;3.09;100.00;96168.53;4891596;29;20040;-80
2022/01/10 04:10:08;;;;;;;28.70;12.68;;;;;;;3.20;100.00;96168.78;4909363;29;20036;-80
2022/01/10 04:12:34;;;;;;;26.80;12.25;;;;;;;3.22;100.00;96166.94;4907005;29;20047;-80
2022/01/10 04:14:59;;;;;;;25.33;12.85;;;;;;;3.18;100.00;96168.03;4907559;29;20525;-81
2022/01/10 04:17:25;;;;;;;32.00;13.30;;;;;;;3.18;100.00;96178.59;4911272;29;20067;-81
2022/01/10 04:19:50;;;;;;;24.33;10.82;;;;;;;3.07;100.00;96167.78;4890739;29;20066;-80
2022/01/10 04:22:16;;;;;;;27.52;12.85;;;;;;;3.00;100.00;96175.16;4888146;29;20051;-81
2022/01/10 04:24:41;;;;;;;27.13;12.88;;;;;;;2.97;100.00;96163.91;4903543;29;20036;-81
2022/01/10 04:27:07;;;;;;;27.42;12.15;;;;;;;2.99;100.00;96189.28;4886509;29;20041;-80
2022/01/10 04:29:33;;;;;;;27.00;12.85;;;;;;;3.06;100.00;96190.69;4907473;29;20050;-80
2022/01/10 04:32:00;;;;;;;37.15;15.38;;;;;;;3.11;100.00;96193.06;4903349;29;20178;-81
2022/01/10 04:34:31;;;;;;;39.78;17.20;;;;;;;3.07;100.00;96196.81;4895216;29;20040;-81
2022/01/10 04:37:06;;;;;;;43.60;18.58;;;;;;;3.07;100.00;96205.59;4892867;29;20051;-81
2022/01/10 04:39:32;;;;;;;41.55;18.27;;;;;;;3.19;100.00;96210.22;4913693;29;20390;-79
2022/01/10 04:41:59;;;;;;;32.05;13.95;;;;;;;3.06;100.00;96203.88;4894405;29;20115;-81
2022/01/10 04:44:25;;;;;;;39.42;16.48;;;;;;;2.95;100.00;96200.13;4909834;29;20047;-80
2022/01/10 04:46:51;;;;;;;29.17;12.60;;;;;;;2.91;100.00;96209.13;4909021;29;20075;-80
2022/01/10 04:49:21;;;;;;;29.80;13.55;;;;;;;2.68;100.00;96210.34;4893463;29;20043;-80
2022/01/10 04:52:00;;;;;;;27.45;12.55;;;;;;;2.65;100.00;96198.16;4915364;29;20413;-81
2022/01/10 04:54:25;;;;;;;24.85;11.02;;;;;;;2.65;100.00;96207.84;4893767;29;20527;-80
2022/01/10 04:56:51;;;;;;;23.98;10.20;;;;;;;2.87;100.00;96226.06;4909061;29;20047;-81
2022/01/10 04:59:16;;;;;;;27.02;11.63;;;;;;;2.88;100.00;96222.50;4904062;29;20051;-80
2022/01/10 05:01:42;;;;;;;27.30;12.30;;;;;;;2.98;100.00;96231.66;4896840;29;20054;-80
2022/01/10 05:04:30;;;;;;;27.80;12.40;;;;;;;3.00;100.00;96232.41;4909574;29;20078;-81
2022/01/10 05:06:56;;;;;;;19.52;9.40;;;;;;;2.96;100.00;96217.66;4916137;29;20035;-80
2022/01/10 05:09:22;;;;;;;21.48;10.93;;;;;;;2.90;100.00;96215.34;4894242;29;20050;-80
2022/01/10 05:11:47;;;;;;;29.23;11.70;;;;;;;2.91;100.00;96220.56;4917550;29;20067;-79
2022/01/10 05:14:13;;;;;;;25.98;11.15;;;;;;;2.94;100.00;96216.88;4887426;29;20040;-80
2022/01/10 05:16:40;;;;;;;24.10;10.63;;;;;;;3.04;100.00;96221.63;4893048;29;20036;-79
2022/01/10 05:19:09;;;;;;;24.77;12.20;;;;;;;3.03;100.00;96221.69;4913496;29;20091;-81
2022/01/10 05:21:35;;;;;;;25.02;11.45;;;;;;;3.01;100.00;96227.06;4913698;29;20043;-80
2022/01/10 05:24:01;;;;;;;22.85;11.38;;;;;;;3.03;100.00;96221.69;4908013;29;20044;-80
2022/01/10 05:26:26;;;;;;;32.53;15.23;;;;;;;2.95;100.00;96215.97;4893064;29;20040;-80
2022/01/10 05:28:59;;;;;;;31.05;13.57;;;;;;;3.08;100.00;96236.34;4906756;29;20036;-80
2022/01/10 05:31:25;;;;;;;26.70;12.52;;;;;;;3.12;100.00;96243.16;4894631;29;20043;-80
2022/01/10 05:33:51;;;;;;;23.20;11.05;;;;;;;3.13;100.00;96230.81;4909766;29;20043;-80
2022/01/10 05:36:16;;;;;;;29.55;13.63;;;;;;;3.07;100.00;96245.22;4906850;29;20035;-80
2022/01/10 05:38:42;;;;;;;38.53;18.40;;;;;;;3.03;100.00;96243.66;4898747;29;20055;-80
2022/01/10 05:41:08;;;;;;;29.95;15.00;;;;;;;3.15;100.00;96250.94;4917080;29;20076;-79
2022/01/10 05:43:33;;;;;;;27.67;13.60;;;;;;;3.04;100.00;96244.53;4887969;29;20043;-80
2022/01/10 05:46:06;;;;;;;23.52;13.15;;;;;;;3.08;100.00;96246.03;4888128;29;20534;-80
2022/01/10 05:48:34;;;;;;;28.13;14.18;;;;;;;3.00;100.00;96235.91;4908018;29;20512;-79
2022/01/10 05:50:59;;;;;;;24.73;11.93;;;;;;;2.95;100.00;96250.28;4907527;29;20508;-79
2022/01/10 05:53:25;;;;;;;32.00;13.50;;;;;;;3.00;100.00;96253.53;4905626;29;20058;-79
2022/01/10 05:55:51;;;;;;;26.20;13.95;;;;;;;2.84;100.00;96239.44;4906427;29;20054;-80
2022/01/10 05:58:19;;;;;;;31.05;14.93;;;;;;;2.89;100.00;96250.63;4909765;29;20106;-81
2022/01/10 06:00:45;;;;;;;33.60;15.95;;;;;;;2.87;100.00;96255.09;4910554;29;20046;-80
2022/01/10 06:03:10;;;;;;;44.95;21.38;;;;;;;2.85;100.00;96256.97;4896910;29;20039;-83
2022/01/10 06:05:36;;;;;;;33.15;16.55;;;;;;;2.81;100.00;96260.69;4898343;29;20187;-80
2022/01/10 06:08:04;;;;;;;30.20;14.68;;;;;;;2.84;100.00;96276.38;4915436;29;20071;-80
2022/01/10 06:10:31;;;;;;;29.75;15.13;;;;;;;2.74;100.00;96265.44;4899196;29;20059;-80
2022/01/10 06:13:03;;;;;;;31.42;15.48;;;;;;;2.64;100.00;96267.72;4908889;29;20486;-80
2022/01/10 06:15:29;;;;;;;38.33;17.73;;;;;;;2.66;100.00;96268.50;4912410;29;20055;-79
2022/01/10 06:17:55;;;;;;;28.58;13.98;;;;;;;2.63;100.00;96271.28;4883605;29;20148;-80
2022/01/10 06:20:20;;;;;;;33.55;15.00;;;;;;;2.69;100.00;96275.41;4913629;29;20043;-80
2022/01/10 06:22:46;;;;;;;30.58;13.63;;;;;;;2.71;100.00;96270.88;4884037;29;20580;-80
2022/01/10 06:25:16;;;;;;;40.03;15.30;;;;;;;2.72;100.00;96276.09;4906907;29;20047;-82
2022/01/10 06:27:42;;;;;;;36.10;15.10;;;;;;;2.88;100.00;96275.31;4898362;29;20051;-80
2022/01/10 06:30:08;;;;;;;46.10;18.02;;;;;;;2.84;100.00;96274.59;4885208;29;20528;-81
2022/01/10 06:32:33;;;;;;;38.45;18.10;;;;;;;2.72;100.00;96270.81;4894769;29;20044;-80
2022/01/10 06:34:59;;;;;;;53.40;24.08;;;;;;;2.66;100.00;96265.84;4918761;29;20071;-80
2022/01/10 06:37:25;;;;;;;48.00;21.48;;;;;;;2.79;100.00;96287.19;4911705;29;20048;-81
2022/01/10 06:39:51;;;;;;;51.47;24.05;;;;;;;2.83;100.00;96296.66;4896364;29;20043;-79
2022/01/10 06:42:17;;;;;;;48.42;22.17;;;;;;;2.85;100.00;96294.81;4889511;29;20538;-79
2022/01/10 06:44:43;;;;;;;35.58;15.70;;;;;;;2.78;100.00;96301.31;4905421;29;20075;-81
2022/01/10 06:47:08;;;;;;;42.65;21.25;;;;;;;2.66;100.00;96291.41;4906151;29;20032;-79
2022/01/10 06:49:34;;;;;;;38.80;19.25;;;;;;;2.74;100.00;96283.91;4903142;29;20040;-80
2022/01/10 06:52:00;;;;;;;50.03;22.42;;;;;;;2.86;100.00;96298.31;4892986;29;20036;-80
2022/01/10 06:54:25;;;;;;;36.13;15.88;;;;;;;2.98;100.00;96302.94;4903012;29;20043;-80
2022/01/10 06:56:51;;;;;;;34.50;15.93;;;;;;;2.94;100.00;96290.81;4907593;29;20066;-80
2022/01/10 06:59:18;;;;;;;33.17;16.33;;;;;;;3.10;100.00;96307.59;4897712;29;20032;-81
2022/01/10 07:01:44;;;;;;;32.67;16.10;;;;;;;3.11;100.00;96315.41;4903659;29;20090;-82
2022/01/10 07:04:10;;;;;;;32.95;15.50;;;;;;;2.97;100.00;96294.16;4902488;29;20580;-84
2022/01/10 07:06:36;;;;;;;42.63;19.77;;;;;;;3.02;100.00;96293.91;4909771;29;20043;-79
2022/01/10 07:09:01;;;;;;;30.90;14.85;;;;;;;2.99;100.00;96309.91;4887607;29;20127;-80
2022/01/10 07:11:27;;;;;;;29.13;14.27;;;;;;;3.07;100.00;96321.81;4908926;29;20032;-79
2022/01/10 07:13:53;;;;;;;33.67;16.95;;;;;;;3.04;100.00;96323.75;4903210;29;20534;-82
2022/01/10 07:16:19;;;;;;;39.60;18.50;;;;;;;3.08;100.00;96320.84;4889751;29;20028;-80
2022/01/10 07:18:45;;;;;;;24.13;12.57;;;;;;;3.21;100.00;96321.06;4895224;29;20035;-80
2022/01/10 07:21:10;;;;;;;28.20;14.40;;;;;;;3.22;100.00;96328.06;4889544;29;20377;-79
2022/01/10 07:23:36;;;;;;;26.50;11.20;;;;;;;3.18;100.00;96326.50;4906778;29;20032;-79
2022/01/10 07:26:02;;;;;;;94.22;46.83;;;;;;;3.16;100.00;96317.81;4903219;29;20040;-79
2022/01/10 07:28:27;;;;;;;43.83;20.42;;;;;;;3.14;100.00;96317.03;4902876;29;20036;-79
2022/01/10 07:30:53;;;;;;;33.10;16.55;;;;;;;3.22;100.00;96323.66;4903675;29;20054;-80
2022/01/10 07:33:19;;;;;;;44.83;19.45;;;;;;;3.27;100.00;96329.53;4896470;29;20032;-80
2022/01/10 07:35:44;;;;;;;55.53;27.27;;;;;;;3.16;100.00;96329.25;4916268;29;20044;-80
2022/01/10 07:38:10;;;;;;;28.60;14.10;;;;;;;3.29;100.00;96334.75;4894178;29;20076;-79
2022/01/10 07:40:35;;;;;;;25.23;11.57;;;;;;;3.39;100.00;96351.78;4911341;29;20536;-79
2022/01/10 07:43:01;;;;;;;22.33;11.77;;;;;;;3.33;100.00;96343.34;4900519;29;20103;-79
2022/01/10 07:45:27;;;;;;;20.85;10.18;;;;;;;3.22;100.00;96331.56;4906038;29;20111;-79
2022/01/10 07:47:52;;;;;;;26.67;13.38;;;;;;;3.25;100.00;96344.63;4918209;29;20035;-78
2022/01/10 07:50:18;;;;;;;27.67;14.98;;;;;;;3.33;100.00;96338.91;4902619;29;20038;-79
2022/01/10 07:52:43;;;;;;;23.55;11.75;;;;;;;3.32;100.00;96334.59;4916986;29;20035;-78
2022/01/10 07:55:10;;;;;;;39.05;20.35;;;;;;;3.28;100.00;96338.31;4902677;29;20028;-80
2022/01/10 07:57:35;;;;;;;31.73;15.07;;;;;;;3.21;100.00;96337.78;4918648;29;20042;-80
2022/01/10 08:00:01;;;;;;;44.15;22.98;;;;;;;3.26;100.00;96340.19;4902537;29;20424;-79
2022/01/10 08:02:27;;;;;;;38.35;19.75;;;;;;;3.14;100.00;96336.38;4911591;29;20039;-79
2022/01/10 08:04:52;;;;;;;33.38;16.25;;;;;;;3.27;100.00;96333.94;4893745;29;20059;-80
2022/01/10 08:07:18;;;;;;;28.27;13.32;;;;;;;3.22;100.00;96347.41;4907244;29;20040;-79
2022/01/10 08:09:44;;;;;;;30.58;15.70;;;;;;;3.29;100.00;96355.88;4891336;29;20420;-79
2022/01/10 08:12:10;;;;;;;40.53;20.92;;;;;;;3.26;100.00;96342.84;4909968;29;20115;-79
2022/01/10 08:14:35;;;;;;;45.03;22.55;;;;;;;3.48;100.00;96361.03;4912829;29;20504;-79
2022/01/10 08:17:01;;;;;;;37.17;19.15;;;;;;;3.49;100.00;96347.75;4902195;29;20090;-79
2022/01/10 08:19:28;;;;;;;37.45;18.83;;;;;;;3.58;100.00;96346.38;4887510;29;20043;-80
2022/01/10 08:21:56;;;;;;;21.48;11.63;;;;;;;3.54;100.00;96360.69;4899100;29;20489;-80
2022/01/10 08:24:23;;;;;;;20.13;11.30;;;;;;;3.41;100.00;96341.16;4904808;29;20127;-79
2022/01/10 08:26:49;;;;;;;19.85;8.73;;;;;;;3.34;100.00;96335.34;4906758;29;20119;-78
2022/01/10 08:29:15;;;;;;;17.85;9.75;;;;;;;3.36;100.00;96356.38;4911693;29;20079;-79
2022/01/10 08:31:41;;;;;;;21.85;9.63;;;;;;;3.48;100.00;96350.44;4891432;29;20159;-79
2022/01/10 08:34:07;;;;;;;29.25;13.10;;;;;;;3.40;100.00;96358.81;4912373;29;20095;-80
2022/01/10 08:36:33;;;;;;;25.00;14.00;;;;;;;3.37;100.00;96356.31;4891457;29;20052;-79
2022/01/10 08:38:59;;;;;;;18.05;9.48;;;;;;;3.29;100.00;96356.72;4901708;29;20039;-80
2022/01/10 08:41:25;;;;;;;21.08;10.10;;;;;;;3.29;100.00;96350.59;4908914;29;20083;-79
2022/01/10 08:43:51;;;;;;;19.42;9.98;;;;;;;3.33;100.00;96351.25;4901129;29;20067;-79
2022/01/10 08:46:16;;;;;;;20.73;9.38;;;;;;;3.42;100.00;96354.28;4903288;29;20052;-78
2022/01/10 08:48:42;;;;;;;18.90;10.02;;;;;;;3.48;100.00;96353.94;4891124;29;20535;-79
2022/01/10 08:51:08;;;;;;;17.25;8.80;;;;;;;3.46;100.00;96358.47;4888862;29;20055;-79
2022/01/10 08:53:34;;;;;;;21.50;10.18;;;;;;;3.61;100.00;96373.50;4889433;29;20032;-78
2022/01/10 08:56:00;;;;;;;22.02;11.02;;;;;;;3.66;100.00;96368.81;4896881;29;20040;-80
2022/01/10 08:58:32;;;;;;;20.83;11.23;;;;;;;3.65;100.00;96376.84;4916946;29;20066;-80
2022/01/10 09:01:05;;;;;;;18.98;9.43;;;;;;;3.61;100.00;96368.22;4909604;29;20046;-79
2022/01/10 09:03:34;;;;;;;19.02;10.32;;;;;;;3.70;100.00;96367.72;4906026;29;20135;-78
2022/01/10 09:06:01;;;;;;;21.17;11.00;;;;;;;3.71;100.00;96368.59;4889974;29;20040;-80
2022/01/10 09:08:31;;;;;;;23.60;11.35;;;;;;;3.62;100.00;96369.09;4906644;29;20122;-80
2022/01/10 09:11:01;;;;;;;20.77;12.02;;;;;;;3.71;100.00;96374.75;4912887;29;20456;-79
2022/01/10 09:13:27;;;;;;;25.33;12.15;;;;;;;3.58;100.00;96371.03;4909647;29;20084;-80
2022/01/10 09:15:53;;;;;;;23.10;11.60;;;;;;;3.60;100.00;96376.25;4887857;29;20044;-78
2022/01/10 09:18:18;;;;;;;21.38;12.40;;;;;;;3.36;100.00;96372.25;4900849;29;20484;-79
2022/01/10 09:20:44;;;;;;;22.42;12.50;;;;;;;3.36;100.00;96378.38;4913606;29;20123;-79
2022/01/10 09:23:10;;;;;;;29.15;16.10;;;;;;;3.44;100.00;96378.84;4914629;29;20600;-79
2022/01/10 09:25:36;;;;;;;60.05;30.58;;;;;;;3.55;100.00;96378.28;4884237;29;20071;-78
2022/01/10 09:28:02;;;;;;;31.60;17.20;;;;;;;3.57;100.00;96385.19;4902598;29;20040;-79
2022/01/10 09:30:27;;;;;;;31.25;17.00;;;;;;;3.65;100.00;96374.22;4909208;29;20492;-79
2022/01/10 09:32:54;;;;;;;25.98;13.45;;;;;;;3.71;100.00;96380.03;4896535;29;20056;-80
2022/01/10 09:35:20;;;;;;;27.48;14.25;;;;;;;3.68;100.00;96380.19;4897099;29;20110;-78
2022/01/10 09:37:47;;;;;;;30.55;15.90;;;;;;;3.54;100.00;96385.34;4896184;29;20040;-79
2022/01/10 09:40:13;;;;;;;37.05;18.55;;;;;;;3.57;100.00;96397.56;4914639;29;20045;-80
2022/01/10 09:42:40;;;;;;;36.17;19.63;;;;;;;3.55;100.00;96383.56;4892084;29;20415;-80
2022/01/10 09:45:07;;;;;;;43.70;17.48;;;;;;;3.63;100.00;96376.91;4905496;29;20130;-78
2022/01/10 09:47:33;;;;;;;35.15;13.55;;;;;;;3.70;100.00;96378.31;4903913;29;20488;-79
2022/01/10 09:49:59;;;;;;;17.55;8.35;;;;;;;3.69;100.00;96386.34;4885750;29;20068;-79
2022/01/10 09:52:25;;;;;;;37.35;18.33;;;;;;;3.78;100.00;96378.75;4879977;29;20071;-79
2022/01/10 09:54:53;;;;;;;59.03;24.38;;;;;;;3.88;100.00;96383.56;4882721;29;20043;-80
2022/01/10 09:57:19;;;;;;;59.05;23.88;;;;;;;3.78;100.00;96376.09;4894534;29;20452;-79
2022/01/10 09:59:45;;;;;;;37.53;19.90;;;;;;;3.82;100.00;96384.72;4904931;29;20420;-79
2022/01/10 10:02:10;;;;;;;28.17;16.63;;;;;;;3.72;100.00;96386.19;4892801;29;20047;-78
2022/01/10 10:04:37;;;;;;;28.20;15.00;;;;;;;3.79;100.00;96384.88;4883512;29;20131;-80
2022/01/10 10:07:05;;;;;;;20.23;11.52;;;;;;;3.77;100.00;96384.13;4901081;29;20508;-80
2022/01/10 10:09:30;;;;;;;24.38;12.57;;;;;;;3.84;100.00;96381.03;4899938;29;20492;-80
2022/01/10 10:11:56;;;;;;;26.83;13.57;;;;;;;3.85;100.00;96371.31;4898838;29;20052;-79
2022/01/10 10:14:22;;;;;;;30.67;14.68;;;;;;;4.04;100.00;96387.06;4906955;29;20032;-79
2022/01/10 10:16:51;;;;;;;30.73;12.52;;;;;;;3.96;100.00;96379.56;4884996;29;20102;-80
2022/01/10 10:19:28;;;;;;;18.85;10.35;;;;;;;3.95;100.00;96385.78;4912001;29;20047;-77
2022/01/10 10:21:55;;;;;;;22.27;11.07;;;;;;;3.94;100.00;96391.16;4895508;29;20151;-78
2022/01/10 10:24:21;;;;;;;23.02;12.23;;;;;;;3.88;100.00;96376.44;4899654;29;20327;-78
2022/01/10 10:26:48;;;;;;;29.55;16.48;;;;;;;4.00;100.00;96386.34;4912007;29;20032;-78
2022/01/10 10:29:17;;;;;;;34.35;18.80;;;;;;;4.00;100.00;96401.41;4913807;29;20115;-79
2022/01/10 10:31:53;;;;;;;31.00;17.58;;;;;;;3.84;100.00;96388.97;4902375;29;20068;-79
2022/01/10 10:34:29;;;;;;;35.33;17.58;;;;;;;4.01;100.00;96397.81;4894130;29;20046;-78
2022/01/10 10:37:04;;;;;;;41.40;21.33;;;;;;;4.14;100.00;96398.84;4917517;29;20044;-78
2022/01/10 10:39:32;;;;;;;38.53;19.48;;;;;;;3.72;100.00;96380.88;4887826;29;20032;-78
2022/01/10 10:42:02;;;;;;;39.88;20.10;;;;;;;3.81;100.00;96397.09;4908019;29;20056;-78
2022/01/10 10:44:29;;;;;;;47.10;20.60;;;;;;;3.96;100.00;96405.16;4898492;29;20499;-79
2022/01/10 10:46:54;;;;;;;32.92;17.20;;;;;;;3.89;100.00;96393.19;4905097;29;20447;-79
2022/01/10 10:49:22;;;;;;;35.30;18.13;;;;;;;4.02;100.00;96404.81;4912130;29;20058;-78
2022/01/10 10:51:50;;;;;;;30.83;16.55;;;;;;;4.03;100.00;96399.41;4900267;29;20039;-78
2022/01/10 10:54:17;;;;;;;27.33;15.57;;;;;;;4.17;100.00;96399.53;4894028;29;20504;-79
2022/01/10 10:56:43;;;;;;;31.38;15.43;;;;;;;4.15;100.00;96404.03;4895301;29;20051;-86
2022/01/10 10:59:11;;;;;;;27.27;13.70;;;;;;;4.10;100.00;96407.88;4908843;29;20508;-85
2022/01/10 11:01:38;;;;;;;26.90;15.23;;;;;;;4.00;100.00;96406.69;4890132;29;20144;-86
2022/01/10 11:04:05;;;;;;;24.25;13.13;;;;;;;3.83;100.00;96400.53;4888588;29;20130;-85
2022/01/10 11:06:34;;;;;;;22.08;12.45;;;;;;;3.83;100.00;96399.66;4901753;29;20480;-86
2022/01/10 11:09:03;;;;;;;23.42;13.20;;;;;;;3.83;100.00;96408.44;4887561;29;20107;-86
2022/01/10 11:11:29;;;;;;;28.60;16.08;;;;;;;3.86;100.00;96409.22;4914250;29;20032;-85
2022/01/10 11:13:58;;;;;;;26.98;13.70;;;;;;;3.91;100.00;96418.59;4900092;29;20098;-85
2022/01/10 11:16:28;;;;;;;23.25;12.65;;;;;;;3.76;100.00;96396.47;4907459;29;20044;-86
2022/01/10 11:18:54;;;;;;;21.55;12.40;;;;;;;3.76;100.00;96420.28;4897247;29;20062;-86
2022/01/10 11:21:23;;;;;;;24.38;12.70;;;;;;;3.72;100.00;96424.00;4886446;29;20039;-85
2022/01/10 11:23:50;;;;;;;21.85;11.35;;;;;;;3.63;100.00;96424.50;4914468;29;20412;-86
2022/01/10 11:26:17;;;;;;;23.92;13.38;;;;;;;3.64;100.00;96420.94;4900605;29;20063;-86